Time;durP1;ratioP1;P1;durP2;ratioP2;P2;SDS_P1;SDS_P2;PMS_P1;PMS_P2;Temp;Humidity;BMP_temperature;BMP_pressure;BME280_temperature;BME280_humidity;BME280_pressure;Samples;Min_cycle;Max_cycle;Signal;HPM_P1;HPM_P2
2022/08/28 00:00:48;;;;;;;13.10;5.10;;;;;;;26.01;46.71;99307.25;5049566;28;20408;-37
2022/08/28 00:03:14;;;;;;;11.80;5.03;;;;;;;25.79;47.00;99317.09;5050386;28;20021;-37
2022/08/28 00:05:41;;;;;;;11.77;4.78;;;;;;;25.79;47.05;99321.75;5050364;28;20029;-38
2022/08/28 00:08:09;;;;;;;12.55;4.90;;;;;;;25.89;46.82;99314.13;5049933;28;20107;-37
2022/08/28 00:10:35;;;;;;;10.88;4.70;;;;;;;25.72;46.93;99312.13;5049733;28;20477;-36
2022/08/28 00:13:01;;;;;;;15.45;5.28;;;;;;;25.56;47.55;99314.44;5049841;28;20021;-36
2022/08/28 00:15:30;;;;;;;12.43;4.85;;;;;;;25.40;47.66;99313.25;5049922;28;20547;-37
2022/08/28 00:17:55;;;;;;;9.90;4.80;;;;;;;25.57;47.66;99312.56;5049922;28;20459;-37
2022/08/28 00:20:22;;;;;;;9.95;4.90;;;;;;;25.46;48.31;99312.00;5049604;28;20028;-38
2022/08/28 00:22:48;;;;;;;9.15;5.22;;;;;;;25.63;48.16;99308.56;5049540;28;20079;-38
2022/08/28 00:25:16;;;;;;;8.25;5.00;;;;;;;25.54;48.31;99305.00;5049964;28;20025;-36
2022/08/28 00:27:53;;;;;;;10.57;5.20;;;;;;;25.58;47.86;99303.25;5049316;28;20047;-37
2022/08/28 00:30:47;;;;;;;8.38;4.97;;;;;;;25.60;48.33;99308.38;5049664;28;20420;-36
2022/08/28 00:33:21;;;;;;;8.13;4.80;;;;;;;26.19;47.15;99314.38;5049461;28;20112;-37
2022/08/28 00:35:48;;;;;;;11.57;4.97;;;;;;;25.58;48.75;99316.06;5049795;28;20098;-37
2022/08/28 00:38:17;;;;;;;11.63;5.38;;;;;;;25.25;49.08;99306.28;5049418;28;20025;-36
2022/08/28 00:40:44;;;;;;;10.55;5.20;;;;;;;25.41;48.49;99319.50;5049838;28;20507;-37
2022/08/28 00:43:21;;;;;;;10.30;5.00;;;;;;;25.19;49.80;99307.50;5049316;28;20036;-37
2022/08/28 00:45:46;;;;;;;13.95;5.10;;;;;;;25.27;49.53;99317.66;5049795;28;20025;-36
2022/08/28 00:48:12;;;;;;;9.57;4.63;;;;;;;25.26;48.91;99316.06;5049646;28;20489;-36
2022/08/28 00:53:23;;;;;;;10.85;4.63;;;;;;;25.28;48.98;99313.81;5049124;28;20052;-36
2022/08/28 00:55:49;;;;;;;12.52;4.72;;;;;;;25.27;49.24;99317.66;5049175;28;20021;-37
2022/08/28 00:58:16;;;;;;;12.63;5.30;;;;;;;25.16;49.27;99321.75;5049437;28;20024;-36
2022/08/28 01:00:42;;;;;;;13.15;5.32;;;;;;;25.04;49.76;99318.78;5049423;28;20029;-36
2022/08/28 01:03:08;;;;;;;11.05;4.88;;;;;;;25.09;49.71;99319.47;5049137;28;20017;-37
2022/08/28 01:05:35;;;;;;;13.07;5.45;;;;;;;25.10;49.40;99318.34;5049471;28;20430;-37
2022/08/28 01:08:03;;;;;;;10.60;5.25;;;;;;;25.79;47.88;99322.56;5049032;28;20046;-36
2022/08/28 01:10:31;;;;;;;15.75;5.28;;;;;;;25.08;49.44;99328.72;5049385;28;20601;-35
2022/08/28 01:12:57;;;;;;;11.17;5.47;;;;;;;24.79;50.66;99329.16;5052800;28;20053;-36
2022/08/28 01:15:28;;;;;;;10.05;5.28;;;;;;;24.84;50.74;99326.31;5053295;28;20017;-36
2022/08/28 01:17:58;;;;;;;9.25;5.05;;;;;;;24.87;50.87;99330.34;5052991;28;20064;-36
2022/08/28 01:20:30;;;;;;;11.38;5.00;;;;;;;24.75;50.74;99320.81;5053367;28;20107;-36
2022/08/28 01:23:23;;;;;;;10.27;5.20;;;;;;;24.78;50.82;99330.28;5052972;28;20185;-36
2022/08/28 01:25:48;;;;;;;11.18;4.80;;;;;;;25.14;49.53;99324.75;5052765;28;20129;-36
2022/08/28 01:28:14;;;;;;;10.48;5.15;;;;;;;24.75;50.21;99322.72;5052616;28;20527;-37
2022/08/28 01:30:43;;;;;;;12.05;5.05;;;;;;;24.73;50.45;99331.22;5052790;28;20032;-37
2022/08/28 01:33:09;;;;;;;13.13;5.18;;;;;;;24.72;50.39;99332.31;5052834;28;20061;-37
2022/08/28 01:35:38;;;;;;;12.48;5.03;;;;;;;24.81;50.16;99335.09;5052178;28;20033;-38
2022/08/28 01:38:04;;;;;;;8.63;5.00;;;;;;;24.81;50.16;99337.81;5052599;28;20131;-38
2022/08/28 01:40:35;;;;;;;8.73;4.78;;;;;;;24.82;50.07;99350.31;5052854;28;20107;-38
2022/08/28 01:43:19;;;;;;;11.13;4.80;;;;;;;24.82;49.86;99349.50;5052695;28;20067;-37
2022/08/28 01:45:48;;;;;;;13.15;5.22;;;;;;;24.84;49.88;99350.00;5052226;28;20381;-37
2022/08/28 01:48:15;;;;;;;12.10;5.07;;;;;;;24.82;49.80;99347.59;5052376;28;20040;-37
2022/08/28 01:50:41;;;;;;;11.35;4.68;;;;;;;24.77;50.29;99351.25;5052530;28;20021;-35
2022/08/28 01:53:08;;;;;;;9.98;4.80;;;;;;;24.73;50.13;99352.16;5052245;28;20025;-38
2022/08/28 01:55:34;;;;;;;13.40;4.70;;;;;;;24.87;49.36;99338.50;5052102;28;20013;-37
2022/08/28 01:58:02;;;;;;;12.35;4.50;;;;;;;24.61;50.22;99341.00;5052016;28;20022;-37
2022/08/28 02:00:28;;;;;;;10.32;4.97;;;;;;;24.36;51.08;99341.22;5052460;28;20347;-37
2022/08/28 02:02:56;;;;;;;11.98;4.82;;;;;;;24.45;51.14;99338.59;5052170;28;20017;-37
2022/08/28 02:05:27;;;;;;;16.63;5.00;;;;;;;24.42;51.06;99341.91;5052169;28;20028;-37
2022/08/28 02:07:52;;;;;;;10.45;4.90;;;;;;;24.48;51.07;99334.47;5051666;28;20180;-37
2022/08/28 02:10:21;;;;;;;9.35;4.88;;;;;;;24.45;50.95;99335.09;5052070;28;20107;-37
2022/08/28 02:12:48;;;;;;;12.30;5.22;;;;;;;24.36;51.34;99335.78;5051883;28;20496;-35
2022/08/28 02:15:13;;;;;;;10.73;5.22;;;;;;;24.40;51.07;99334.06;5051928;28;20108;-38
2022/08/28 02:17:39;;;;;;;7.45;4.75;;;;;;;24.74;50.07;99345.59;5051494;28;20168;-37
2022/08/28 02:20:06;;;;;;;9.80;4.70;;;;;;;24.23;51.52;99342.03;5051770;28;20028;-37
2022/08/28 02:22:32;;;;;;;10.40;5.25;;;;;;;24.21;51.52;99347.00;5051411;28;20061;-37
2022/08/28 02:24:57;;;;;;;9.35;5.18;;;;;;;24.16;51.91;99347.91;5051782;28;20029;-37
2022/08/28 02:27:23;;;;;;;9.60;4.63;;;;;;;24.11;52.61;99350.72;5051437;28;20021;-37
2022/08/28 02:29:48;;;;;;;7.80;4.97;;;;;;;24.21;52.18;99355.13;5051762;28;20455;-37
2022/08/28 02:32:14;;;;;;;11.90;4.80;;;;;;;24.00;52.67;99358.25;5051456;28;20107;-37
2022/08/28 02:34:42;;;;;;;9.80;5.38;;;;;;;24.45;51.35;99344.03;5051677;28;20047;-37
2022/08/28 02:37:10;;;;;;;13.35;4.95;;;;;;;24.27;51.68;99353.13;5051579;28;20021;-37
2022/08/28 02:39:36;;;;;;;11.13;5.22;;;;;;;24.02;52.41;99352.53;5051289;28;20035;-37
2022/08/28 02:42:02;;;;;;;10.55;5.30;;;;;;;24.02;51.77;99354.44;5050174;28;20028;-37
2022/08/28 02:44:27;;;;;;;12.75;5.45;;;;;;;23.98;51.78;99348.81;5051248;28;20017;-37
2022/08/28 02:46:53;;;;;;;9.13;4.90;;;;;;;23.80;51.77;99326.88;5051128;28;20127;-37
2022/08/28 02:49:18;;;;;;;11.38;4.55;;;;;;;24.03;51.56;99343.28;5051268;28;20033;-37
2022/08/28 02:51:44;;;;;;;8.20;4.72;;;;;;;24.10;51.73;99345.59;5051165;28;20385;-37
2022/08/28 02:54:09;;;;;;;15.32;5.07;;;;;;;24.02;51.59;99349.81;5051223;28;20031;-37
2022/08/28 02:56:35;;;;;;;9.75;4.97;;;;;;;24.06;51.08;99353.53;5051016;28;20029;-36
2022/08/28 02:59:00;;;;;;;9.40;4.60;;;;;;;24.54;49.77;99355.00;5051037;28;20025;-36
2022/08/28 03:01:25;;;;;;;11.00;4.60;;;;;;;24.17;50.82;99356.84;5050918;28;20040;-37
2022/08/28 03:03:51;;;;;;;11.07;4.70;;;;;;;24.09;51.11;99354.84;5051196;28;20098;-37
2022/08/28 03:06:16;;;;;;;10.57;5.00;;;;;;;23.98;51.71;99359.69;5051192;28;20107;-37
2022/08/28 03:08:43;;;;;;;8.63;4.85;;;;;;;24.12;51.05;99355.06;5050955;28;20016;-37
2022/08/28 03:11:09;;;;;;;10.13;4.90;;;;;;;24.02;51.21;99349.03;5050859;28;20212;-37
2022/08/28 03:13:35;;;;;;;10.48;5.10;;;;;;;24.17;51.18;99363.09;5051056;28;20017;-37
2022/08/28 03:16:00;;;;;;;10.45;5.07;;;;;;;24.05;51.26;99354.66;5050772;28;20390;-37
2022/08/28 03:18:29;;;;;;;9.30;5.10;;;;;;;24.24;51.03;99357.25;5050811;28;20033;-37
2022/08/28 03:20:55;;;;;;;12.13;4.95;;;;;;;23.74;51.18;99362.53;5050611;28;20039;-37
2022/08/28 03:23:26;;;;;;;10.55;4.68;;;;;;;23.78;51.42;99360.88;5050636;28;20116;-37
2022/08/28 03:25:58;;;;;;;10.85;4.50;;;;;;;23.74;51.11;99360.66;5050772;28;20480;-37
2022/08/28 03:28:27;;;;;;;12.60;4.95;;;;;;;23.72;51.08;99365.59;5049313;28;20095;-37
2022/08/28 03:30:53;;;;;;;10.23;4.95;;;;;;;23.83;51.13;99368.13;5050662;28;20476;-37
2022/08/28 03:33:19;;;;;;;13.05;4.75;;;;;;;23.89;50.98;99370.44;5050489;28;20016;-37
2022/08/28 03:35:44;;;;;;;7.85;4.72;;;;;;;23.93;50.65;99363.31;5049633;28;20017;-37
2022/08/28 03:38:10;;;;;;;11.82;5.28;;;;;;;24.31;49.87;99367.72;5050257;28;20557;-37
2022/08/28 03:40:41;;;;;;;12.60;4.93;;;;;;;23.88;50.91;99374.28;5050448;28;20449;-37
2022/08/28 03:43:12;;;;;;;11.27;5.10;;;;;;;23.73;51.12;99369.91;5050417;28;20489;-37
2022/08/28 03:45:39;;;;;;;9.80;4.88;;;;;;;23.86;51.18;99368.34;5050350;28;20499;-37
2022/08/28 03:48:04;;;;;;;11.00;5.07;;;;;;;23.89;50.99;99372.34;5050205;28;20029;-35
2022/08/28 03:50:30;;;;;;;9.98;5.28;;;;;;;23.74;51.56;99371.53;5050286;28;20078;-35
2022/08/28 03:52:55;;;;;;;9.25;4.93;;;;;;;23.68;51.71;99377.31;5050002;28;20047;-35
2022/08/28 03:55:21;;;;;;;10.02;4.95;;;;;;;24.43;49.50;99381.59;5049725;28;20163;-35
2022/08/28 03:57:47;;;;;;;13.00;5.47;;;;;;;23.94;51.02;99385.84;5049869;28;20021;-36
2022/08/28 04:00:13;;;;;;;13.73;5.20;;;;;;;23.71;51.90;99382.97;5050286;28;20048;-36
2022/08/28 04:02:40;;;;;;;8.93;4.65;;;;;;;23.83;51.71;99393.38;5050243;28;20028;-36
2022/08/28 04:05:07;;;;;;;10.93;4.97;;;;;;;23.86;52.04;99392.00;5049717;28;20017;-36
2022/08/28 04:07:33;;;;;;;11.43;5.20;;;;;;;23.91;51.91;99391.88;5049992;28;20021;-36
2022/08/28 04:09:59;;;;;;;11.32;5.10;;;;;;;24.36;50.48;99401.03;5050096;28;20451;-37
2022/08/28 04:12:24;;;;;;;9.90;5.22;;;;;;;24.44;49.89;99396.81;5049943;28;20083;-36
2022/08/28 04:14:50;;;;;;;10.18;5.05;;;;;;;23.66;52.42;99407.50;5049501;28;20075;-36
2022/08/28 04:17:15;;;;;;;13.68;5.68;;;;;;;23.56;53.11;99410.41;5049587;28;20071;-36
2022/08/28 04:19:42;;;;;;;10.55;5.43;;;;;;;23.64;53.36;99409.72;5049916;28;20508;-36
2022/08/28 04:22:08;;;;;;;16.95;5.68;;;;;;;23.86;52.69;99400.94;5049648;28;20079;-36
2022/08/28 04:24:33;;;;;;;8.55;4.90;;;;;;;24.05;52.72;99403.56;5049573;28;20017;-37
2022/08/28 04:26:58;;;;;;;11.90;5.57;;;;;;;24.27;52.01;99407.50;5049292;28;20033;-36
2022/08/28 04:29:24;;;;;;;12.60;5.32;;;;;;;24.82;50.79;99410.16;5049724;28;20025;-37
2022/08/28 04:31:50;;;;;;;10.10;5.20;;;;;;;24.42;51.80;99418.06;5049710;28;20032;-37
2022/08/28 04:34:15;;;;;;;13.27;5.85;;;;;;;24.19;52.91;99417.97;5049841;28;20108;-36
2022/08/28 04:36:40;;;;;;;15.02;6.13;;;;;;;24.15;52.45;99416.94;5048965;28;20032;-36
2022/08/28 04:39:07;;;;;;;18.38;9.70;;;;;;;24.22;52.74;99413.03;5049574;28;20028;-36
2022/08/28 04:41:35;;;;;;;18.45;8.90;;;;;;;24.40;52.66;99421.06;5049933;28;20025;-36
2022/08/28 04:44:01;;;;;;;24.92;15.02;;;;;;;24.64;52.36;99424.72;5049325;28;20524;-36
2022/08/28 04:46:26;;;;;;;20.77;12.65;;;;;;;24.93;51.65;99419.72;5050677;28;20024;-36
2022/08/28 04:48:52;;;;;;;12.63;5.63;;;;;;;25.05;51.26;99419.16;5053484;28;20029;-36
2022/08/28 04:51:19;;;;;;;15.68;8.55;;;;;;;25.34;50.61;99421.53;5053566;28;20457;-37
2022/08/28 04:53:44;;;;;;;18.65;10.43;;;;;;;25.44;50.09;99416.94;5053419;28;20021;-36
2022/08/28 04:56:12;;;;;;;11.63;5.80;;;;;;;25.74;48.99;99418.06;5053622;28;20411;-36
2022/08/28 04:58:39;;;;;;;11.60;5.18;;;;;;;26.42;47.46;99428.81;5053355;28;20020;-36
2022/08/28 05:01:14;;;;;;;12.57;5.65;;;;;;;26.44;47.62;99427.34;5053690;28;20127;-36
2022/08/28 05:03:41;;;;;;;17.70;5.90;;;;;;;26.43;47.27;99423.03;5053515;28;20554;-37
2022/08/28 05:06:07;;;;;;;14.05;5.47;;;;;;;26.57;46.65;99422.91;5053126;28;20028;-37
2022/08/28 05:08:33;;;;;;;12.93;5.70;;;;;;;26.59;46.67;99414.41;5052983;28;20159;-36
2022/08/28 05:11:09;;;;;;;13.65;6.38;;;;;;;26.55;47.09;99422.41;5053178;28;20049;-37
2022/08/28 05:13:35;;;;;;;13.70;6.38;;;;;;;26.74;47.13;99427.63;5053229;28;20021;-36
2022/08/28 05:16:02;;;;;;;13.02;5.72;;;;;;;26.91;46.01;99427.63;5053161;28;20203;-37
2022/08/28 05:18:28;;;;;;;10.68;5.40;;;;;;;27.15;45.18;99431.81;5052784;28;20032;-37
2022/08/28 05:20:53;;;;;;;12.48;5.30;;;;;;;27.52;43.80;99435.03;5052849;28;20032;-36
2022/08/28 05:23:19;;;;;;;9.23;4.88;;;;;;;27.80;43.40;99442.84;5053050;28;20100;-37
2022/08/28 05:25:46;;;;;;;11.88;5.10;;;;;;;27.88;43.04;99428.34;5052856;28;20025;-36
2022/08/28 05:28:13;;;;;;;12.35;4.95;;;;;;;28.11;42.13;99434.41;5052906;28;20074;-37
2022/08/28 05:30:40;;;;;;;10.98;4.88;;;;;;;28.20;42.04;99445.31;5052592;28;20192;-36
2022/08/28 05:33:07;;;;;;;8.73;4.65;;;;;;;28.44;41.47;99447.44;5052481;28;20032;-36
2022/08/28 05:35:37;;;;;;;8.18;4.75;;;;;;;28.87;40.19;99440.13;5052676;28;20040;-37
2022/08/28 05:38:04;;;;;;;11.35;5.22;;;;;;;28.96;40.12;99440.84;5052502;28;20466;-37
2022/08/28 05:40:30;;;;;;;10.13;4.93;;;;;;;29.18;39.66;99443.28;5052706;28;20040;-37
2022/08/28 05:42:55;;;;;;;10.50;5.05;;;;;;;29.37;39.36;99442.00;5052689;28;20048;-36
2022/08/28 05:45:22;;;;;;;9.95;4.60;;;;;;;29.55;38.25;99446.19;5052690;28;20048;-36
2022/08/28 05:47:48;;;;;;;7.05;4.20;;;;;;;29.54;37.66;99446.50;5052219;28;20036;-36
2022/08/28 05:50:14;;;;;;;10.63;4.60;;;;;;;29.50;38.26;99435.41;5052357;28;20048;-37
2022/08/28 05:52:41;;;;;;;11.13;4.57;;;;;;;29.96;37.85;99447.19;5051822;28;20079;-36
2022/08/28 05:55:08;;;;;;;16.10;4.55;;;;;;;30.39;37.28;99448.66;5052307;28;20048;-36
2022/08/28 05:57:34;;;;;;;7.28;4.35;;;;;;;31.03;35.79;99449.00;5051520;28;20035;-36
2022/08/28 06:00:01;;;;;;;12.38;4.28;;;;;;;30.67;36.26;99450.66;5052104;28;20368;-37
2022/08/28 06:02:26;;;;;;;10.82;4.38;;;;;;;30.73;36.34;99443.81;5051749;28;20140;-37
2022/08/28 06:04:53;;;;;;;14.32;4.78;;;;;;;30.93;35.66;99444.81;5051923;28;20088;-37
2022/08/28 06:07:19;;;;;;;11.80;4.50;;;;;;;31.10;35.31;99451.97;5052194;28;20029;-37
2022/08/28 06:09:44;;;;;;;11.00;4.18;;;;;;;31.34;34.96;99447.56;5051979;28;20404;-37
2022/08/28 06:12:10;;;;;;;12.82;4.43;;;;;;;32.15;34.49;99459.16;5051524;28;20028;-37
2022/08/28 06:14:36;;;;;;;13.63;4.65;;;;;;;32.02;34.26;99465.09;5052273;28;20171;-37
2022/08/28 06:17:02;;;;;;;10.38;4.43;;;;;;;31.82;34.71;99455.94;5051714;28;20045;-37
2022/08/28 06:19:30;;;;;;;8.40;4.30;;;;;;;31.53;34.91;99463.41;5052022;28;20107;-36
2022/08/28 06:21:58;;;;;;;7.07;4.40;;;;;;;31.47;35.35;99460.13;5052015;28;20024;-37
2022/08/28 06:24:26;;;;;;;11.15;4.25;;;;;;;31.91;34.86;99454.59;5051809;28;20259;-37
2022/08/28 06:26:51;;;;;;;8.35;4.50;;;;;;;33.03;33.00;99462.75;5051577;28;20465;-37
2022/08/28 06:29:18;;;;;;;10.50;4.40;;;;;;;32.54;33.78;99459.31;5051734;28;20139;-37
2022/08/28 06:31:44;;;;;;;7.90;4.20;;;;;;;32.16;34.78;99465.47;5051825;28;20028;-36
2022/08/28 06:34:10;;;;;;;9.65;4.53;;;;;;;32.45;34.85;99466.16;5051561;28;20025;-36
2022/08/28 06:36:40;;;;;;;9.63;4.45;;;;;;;32.72;33.80;99462.47;5051212;28;20055;-36
2022/08/28 06:39:07;;;;;;;11.13;4.45;;;;;;;33.19;33.26;99460.75;5051419;28;20052;-36
2022/08/28 06:41:39;;;;;;;11.45;4.45;;;;;;;33.38;32.95;99450.88;5051614;28;20040;-36
2022/08/28 06:44:05;;;;;;;9.77;4.63;;;;;;;33.32;32.65;99458.66;5050953;28;20086;-36
2022/08/28 06:46:33;;;;;;;9.48;4.75;;;;;;;33.27;33.28;99456.19;5051029;28;20036;-37
2022/08/28 06:49:00;;;;;;;10.02;4.60;;;;;;;33.48;32.80;99459.34;5050898;28;20025;-37
2022/08/28 06:51:25;;;;;;;10.82;4.43;;;;;;;33.58;32.45;99459.91;5051171;28;20134;-37
2022/08/28 06:53:51;;;;;;;10.55;4.40;;;;;;;34.13;32.09;99468.00;5051101;28;20025;-37
2022/08/28 06:56:18;;;;;;;14.10;4.45;;;;;;;34.49;31.62;99458.34;5050583;28;20048;-36
2022/08/28 06:58:45;;;;;;;12.20;5.68;;;;;;;34.01;31.46;99463.50;5051270;28;20032;-36
2022/08/28 07:01:16;;;;;;;26.40;10.60;;;;;;;33.82;31.60;99450.53;5050991;28;20491;-37
2022/08/28 07:03:42;;;;;;;21.23;7.22;;;;;;;34.06;31.38;99466.75;5050975;28;20057;-37
2022/08/28 07:06:09;;;;;;;11.70;4.97;;;;;;;34.95;30.21;99463.75;5050744;28;20025;-37
2022/08/28 07:08:36;;;;;;;14.25;4.88;;;;;;;34.76;30.53;99461.13;5050854;28;20031;-37
2022/08/28 07:11:10;;;;;;;7.57;4.65;;;;;;;34.73;30.46;99461.88;5050939;28;20016;-37
2022/08/28 07:13:35;;;;;;;14.80;5.90;;;;;;;34.97;30.16;99461.41;5050887;28;20514;-37
2022/08/28 07:16:01;;;;;;;13.30;6.18;;;;;;;35.17;29.64;99450.22;5050319;28;20049;-36
2022/08/28 07:18:26;;;;;;;12.15;4.82;;;;;;;35.95;28.66;99452.28;5051099;28;20380;-37
2022/08/28 07:20:57;;;;;;;11.80;5.20;;;;;;;35.44;29.43;99454.50;5050897;28;20115;-36
2022/08/28 07:23:23;;;;;;;7.00;4.70;;;;;;;35.01;30.13;99453.97;5050686;28;20104;-36
2022/08/28 07:25:49;;;;;;;14.15;6.32;;;;;;;35.17;29.67;99461.28;5050714;28;20057;-37
2022/08/28 07:28:15;;;;;;;12.02;5.70;;;;;;;35.39;28.96;99462.34;5050212;28;20044;-37
2022/08/28 07:30:41;;;;;;;10.27;5.05;;;;;;;36.01;28.48;99464.56;5050335;28;20056;-37
2022/08/28 07:33:06;;;;;;;14.68;5.00;;;;;;;36.43;27.50;99463.34;5050449;28;20110;-36
2022/08/28 07:35:32;;;;;;;10.80;4.45;;;;;;;36.01;28.70;99459.03;5049925;28;20107;-37
2022/08/28 07:37:57;;;;;;;11.75;5.05;;;;;;;35.69;28.12;99458.75;5049862;28;20025;-36
2022/08/28 07:40:23;;;;;;;15.82;5.13;;;;;;;35.96;28.06;99459.38;5050356;28;20412;-36
2022/08/28 07:45:34;;;;;;;9.27;4.78;;;;;;;36.48;27.82;99468.53;5050660;28;20044;-35
2022/08/28 07:48:07;;;;;;;12.70;5.05;;;;;;;36.45;27.37;99465.72;5049916;28;20059;-36
2022/08/28 07:50:33;;;;;;;8.88;4.60;;;;;;;36.28;27.66;99458.88;5050275;28;20028;-36
2022/08/28 07:52:59;;;;;;;13.60;4.75;;;;;;;36.48;27.40;99463.00;5050044;28;20029;-36
2022/08/28 07:55:26;;;;;;;9.23;4.40;;;;;;;37.14;26.55;99462.97;5049877;28;20023;-37
2022/08/28 07:57:52;;;;;;;13.37;4.80;;;;;;;37.17;26.39;99458.66;5049619;28;20035;-37
2022/08/28 08:00:18;;;;;;;9.20;4.72;;;;;;;36.75;26.17;99460.81;5049807;28;20053;-37
2022/08/28 08:02:43;;;;;;;11.77;4.78;;;;;;;36.70;26.72;99452.84;5050033;28;20103;-36
2022/08/28 08:05:10;;;;;;;17.63;7.25;;;;;;;36.80;26.73;99451.31;5049995;28;20033;-36
2022/08/28 08:07:41;;;;;;;14.25;4.97;;;;;;;37.48;25.91;99454.38;5050096;28;20139;-37
2022/08/28 08:10:09;;;;;;;10.18;4.80;;;;;;;37.33;26.10;99450.75;5049657;28;20025;-37
2022/08/28 08:12:34;;;;;;;11.82;4.30;;;;;;;37.25;25.67;99446.38;5050106;28;20118;-37
2022/08/28 08:15:00;;;;;;;9.52;4.32;;;;;;;37.23;26.02;99454.31;5050036;28;20108;-37
2022/08/28 08:17:25;;;;;;;9.55;4.00;;;;;;;37.30;25.56;99445.19;5049434;28;20071;-36
2022/08/28 08:19:51;;;;;;;9.10;4.50;;;;;;;37.74;25.51;99438.59;5049471;28;20028;-37
2022/08/28 08:22:17;;;;;;;12.35;4.55;;;;;;;37.77;25.55;99448.09;5047835;28;20424;-37
2022/08/28 08:24:42;;;;;;;12.63;4.20;;;;;;;37.33;25.07;99444.41;5049794;28;20386;-36
2022/08/28 08:27:09;;;;;;;9.35;4.25;;;;;;;37.21;25.05;99444.78;5049736;28;20473;-36
2022/08/28 08:29:36;;;;;;;8.60;4.60;;;;;;;37.26;25.18;99438.84;5049806;28;20039;-36
2022/08/28 08:32:08;;;;;;;8.98;4.07;;;;;;;37.81;24.85;99432.25;5049417;28;20032;-36
2022/08/28 08:34:40;;;;;;;11.25;4.00;;;;;;;38.01;24.72;99435.44;5049759;28;20104;-36
2022/08/28 08:37:06;;;;;;;10.75;4.20;;;;;;;37.44;25.32;99425.81;5049441;28;20452;-36
2022/08/28 08:39:33;;;;;;;10.48;3.97;;;;;;;37.34;25.71;99437.69;5049515;28;20021;-36
2022/08/28 08:42:00;;;;;;;10.50;4.27;;;;;;;37.03;26.04;99436.38;5049534;28;20021;-36
2022/08/28 08:44:33;;;;;;;11.65;4.68;;;;;;;37.21;25.68;99430.94;5049704;28;20037;-36
2022/08/28 08:47:26;;;;;;;13.50;4.20;;;;;;;37.47;25.38;99432.56;5048920;28;20031;-36
2022/08/28 08:49:57;;;;;;;10.63;3.90;;;;;;;38.14;24.77;99429.09;5049262;28;20033;-37
2022/08/28 08:52:29;;;;;;;6.18;3.80;;;;;;;37.75;24.92;99429.84;5049251;28;20068;-36
2022/08/28 08:55:30;;;;;;;10.63;3.90;;;;;;;37.62;24.70;99431.44;5049064;28;20040;-37
2022/08/28 08:58:02;;;;;;;10.57;3.80;;;;;;;37.52;24.45;99423.84;5046160;28;20100;-35
2022/08/28 09:00:32;;;;;;;9.82;3.97;;;;;;;37.66;25.03;99426.69;5049123;28;20025;-37
2022/08/28 09:03:37;;;;;;;12.30;4.40;;;;;;;38.59;24.33;99422.28;5049130;28;20094;-36
2022/08/28 09:06:11;;;;;;;9.40;4.07;;;;;;;38.19;24.05;99422.34;5049111;28;20033;-36
2022/08/28 09:08:44;;;;;;;10.85;4.10;;;;;;;38.18;24.95;99417.19;5049347;28;20080;-36
2022/08/28 09:11:47;;;;;;;11.57;3.90;;;;;;;38.04;24.51;99409.63;5049237;28;20396;-36
2022/08/28 09:14:15;;;;;;;12.88;4.32;;;;;;;37.85;25.07;99414.41;5048894;28;20025;-36
2022/08/28 09:16:43;;;;;;;;;;;;;;;38.17;24.62;99407.28;5049427;28;20089;-36
2022/08/28 09:19:13;;;;;;;11.88;4.05;;;;;;;38.71;23.85;99403.19;5048982;28;19909;-36
2022/08/28 09:21:41;;;;;;;12.88;4.18;;;;;;;38.31;24.10;99401.72;5049507;28;20036;-37
2022/08/28 09:24:31;;;;;;;13.20;3.92;;;;;;;37.73;24.87;99404.47;5049001;28;20095;-37
2022/08/28 09:27:24;;;;;;;12.75;4.28;;;;;;;37.54;24.34;99394.50;5049406;28;20411;-36
2022/08/28 09:29:57;;;;;;;11.63;4.20;;;;;;;37.63;24.52;99388.63;5048952;28;20041;-37
2022/08/28 09:32:25;;;;;;;8.82;4.20;;;;;;;37.71;24.25;99394.97;5049829;28;20036;-37
2022/08/28 09:35:12;;;;;;;10.68;4.38;;;;;;;38.07;24.08;99394.97;5052479;28;20420;-37
2022/08/28 09:37:38;;;;;;;12.10;4.07;;;;;;;37.67;24.17;99394.97;5052432;28;20127;-37
2022/08/28 09:40:23;;;;;;;8.45;4.05;;;;;;;37.85;24.53;99394.16;5052295;28;20032;-36
2022/08/28 09:43:29;;;;;;;10.57;3.90;;;;;;;37.82;24.37;99389.44;5052636;28;20028;-37
2022/08/28 09:46:01;;;;;;;13.68;3.95;;;;;;;37.84;24.55;99385.06;5052443;28;20033;-37
2022/08/28 09:48:38;;;;;;;14.82;4.13;;;;;;;38.18;23.82;99387.44;5052441;28;20036;-36
2022/08/28 09:51:10;;;;;;;12.18;4.32;;;;;;;38.85;23.25;99388.44;5052520;28;20480;-38
2022/08/28 09:53:51;;;;;;;11.30;3.97;;;;;;;38.33;23.89;99383.44;5052433;28;20037;-37
2022/08/28 09:56:16;;;;;;;13.68;4.38;;;;;;;38.06;23.94;99383.06;5051750;28;20036;-37
2022/08/28 09:58:53;;;;;;;8.93;4.18;;;;;;;38.00;24.25;99376.31;5051993;28;20476;-37
2022/08/28 10:01:40;;;;;;;14.43;4.38;;;;;;;38.12;23.58;99364.03;5052428;28;20032;-37
2022/08/28 10:04:25;;;;;;;8.32;3.70;;;;;;;38.46;23.60;99378.25;5052415;28;20036;-38
2022/08/28 10:06:59;;;;;;;9.18;4.18;;;;;;;39.02;23.79;99378.47;5051702;28;20032;-36
2022/08/28 10:10:02;;;;;;;10.57;4.32;;;;;;;38.64;23.89;99385.75;5051991;28;20469;-37
2022/08/28 10:13:00;;;;;;;11.95;4.00;;;;;;;38.05;23.62;99375.91;5051992;28;20024;-37
2022/08/28 10:15:41;;;;;;;14.05;4.10;;;;;;;37.97;23.84;99373.53;5015029;28;20042;-36
2022/08/28 10:18:38;;;;;;;9.07;3.92;;;;;;;38.16;24.28;99372.34;5051464;28;20501;-36
2022/08/28 10:21:34;;;;;;;11.63;4.22;;;;;;;38.60;23.79;99366.31;5051827;28;20028;-37
2022/08/28 10:24:20;;;;;;;9.02;3.78;;;;;;;38.39;23.32;99360.81;5051517;28;20052;-37
2022/08/28 10:27:06;;;;;;;10.23;4.18;;;;;;;38.34;23.61;99368.34;5051480;28;20021;-36
2022/08/28 10:29:40;;;;;;;11.32;4.63;;;;;;;38.41;23.60;99366.75;5050076;28;20031;-37
2022/08/28 10:32:24;;;;;;;14.43;4.07;;;;;;;38.26;23.50;99374.31;5051622;28;20021;-37
2022/08/28 10:35:43;;;;;;;12.68;4.53;;;;;;;38.69;23.69;99355.56;5051941;28;20029;-36
2022/08/28 10:38:15;;;;;;;14.65;5.10;;;;;;;39.55;23.07;99350.72;5009504;28;20107;-37
2022/08/28 10:40:43;;;;;;;11.20;4.78;;;;;;;39.34;22.73;99351.63;5049575;28;20036;-36
2022/08/28 10:43:19;;;;;;;13.43;4.20;;;;;;;38.82;22.30;99353.13;5051528;28;20154;-36
2022/08/28 10:45:47;;;;;;;13.93;4.75;;;;;;;38.58;22.70;99340.91;5050934;28;20028;-36
2022/08/28 10:48:33;;;;;;;;;;;;;;;38.85;23.24;99340.38;5051863;28;20172;-36
2022/08/28 10:51:32;;;;;;;12.18;4.30;;;;;;;38.91;22.82;99341.53;5051294;28;19916;-37
2022/08/28 10:54:03;;;;;;;13.32;4.50;;;;;;;39.64;21.84;99339.91;5051122;28;20032;-36
2022/08/28 10:56:39;;;;;;;11.40;4.22;;;;;;;39.21;22.31;99332.66;5051275;28;20021;-36
2022/08/28 10:59:04;;;;;;;11.48;4.05;;;;;;;39.08;21.92;99337.09;5051189;28;20021;-36
2022/08/28 11:01:34;;;;;;;12.52;3.83;;;;;;;39.01;20.28;99328.81;5051049;28;20403;-36
2022/08/28 11:04:05;;;;;;;11.38;4.40;;;;;;;38.45;20.83;99320.28;5051475;28;20107;-36
2022/08/28 11:06:43;;;;;;;14.10;4.03;;;;;;;38.38;21.66;99312.75;5050966;28;20024;-37
2022/08/28 11:09:28;;;;;;;13.23;3.83;;;;;;;39.11;20.70;99319.63;5050935;28;20634;-36
2022/08/28 11:11:57;;;;;;;12.75;3.97;;;;;;;38.56;20.41;99318.28;5050350;28;20033;-37
2022/08/28 11:14:33;;;;;;;11.38;3.95;;;;;;;38.45;20.91;99318.28;5051302;28;20028;-37
2022/08/28 11:17:29;;;;;;;11.25;4.10;;;;;;;38.31;21.44;99308.03;5050972;28;20045;-37
2022/08/28 11:20:08;;;;;;;12.57;4.32;;;;;;;38.61;21.85;99311.50;5051221;28;20515;-36
2022/08/28 11:22:37;;;;;;;11.48;3.88;;;;;;;38.96;20.71;99304.19;5050301;28;20046;-37
2022/08/28 11:25:15;;;;;;;10.65;4.38;;;;;;;39.99;20.96;99310.97;5050619;28;20028;-38
2022/08/28 11:28:09;;;;;;;13.48;4.45;;;;;;;39.64;20.79;99303.72;5050770;28;20028;-38
2022/08/28 11:30:35;;;;;;;13.88;3.97;;;;;;;39.31;20.79;99308.72;5050632;28;20052;-35
2022/08/28 11:33:24;;;;;;;11.23;3.95;;;;;;;39.20;20.66;99303.22;5050221;28;20445;-37
2022/08/28 11:35:50;;;;;;;14.88;4.18;;;;;;;39.17;20.55;99301.28;5050357;28;20033;-37
2022/08/28 11:38:54;;;;;;;10.23;3.90;;;;;;;39.27;21.27;99307.97;5050437;28;20381;-37
2022/08/28 11:41:25;;;;;;;6.82;3.92;;;;;;;40.22;20.42;99304.72;5046463;28;20028;-37
2022/08/28 11:44:13;;;;;;;14.13;4.10;;;;;;;39.46;20.28;99304.66;5049758;28;20393;-37
2022/08/28 11:46:38;;;;;;;15.48;4.20;;;;;;;38.89;21.21;99302.22;5046608;28;20033;-37